createdAt,value
2017-11-25T00:01:49.649Z,8.55
2017-11-25T00:04:18.783Z,8.53
2017-11-25T00:06:48.613Z,8.50
2017-11-25T00:09:16.945Z,8.47
2017-11-25T00:11:46.421Z,8.39
2017-11-25T00:14:16.093Z,8.36
2017-11-25T00:16:45.225Z,8.35
2017-11-25T00:19:14.313Z,8.38
2017-11-25T00:21:43.429Z,8.40
2017-11-25T00:24:12.551Z,8.38
2017-11-25T00:26:42.016Z,8.42
2017-11-25T00:29:10.369Z,8.43
2017-11-25T00:31:38.684Z,8.42
2017-11-25T00:34:07.036Z,8.41
2017-11-25T00:36:35.353Z,8.41
2017-11-25T00:39:03.709Z,8.40
2017-11-25T00:41:32.024Z,8.40
2017-11-25T00:44:00.349Z,8.39
2017-11-25T00:46:28.718Z,8.38
2017-11-25T00:48:57.028Z,8.39
2017-11-25T00:51:25.770Z,8.41
2017-11-25T00:53:54.076Z,8.41
2017-11-25T00:56:22.420Z,8.48
2017-11-25T00:58:52.228Z,8.51
2017-11-25T01:01:20.961Z,8.48
2017-11-25T01:03:49.695Z,8.49
2017-11-25T01:06:18.824Z,8.50
2017-11-25T01:08:47.136Z,8.54
2017-11-25T01:11:15.856Z,8.56
2017-11-25T01:13:45.342Z,8.50
2017-11-25T01:16:13.657Z,8.49
2017-11-25T01:18:42.010Z,8.42
2017-11-25T01:21:11.474Z,8.48
2017-11-25T01:23:40.953Z,8.54
2017-11-25T01:26:10.892Z,8.48
2017-11-25T01:28:39.248Z,8.48
2017-11-25T01:31:07.565Z,8.41
2017-11-25T01:33:35.933Z,8.31
2017-11-25T01:36:04.242Z,8.17
2017-11-25T01:38:33.332Z,8.18
2017-11-25T01:41:03.192Z,8.17
2017-11-25T01:43:32.295Z,8.13
2017-11-25T01:46:01.409Z,8.12
2017-11-25T01:48:30.499Z,8.13
2017-11-25T01:50:58.840Z,8.04
2017-11-25T01:53:27.967Z,8.08
2017-11-25T01:55:57.420Z,8.08
2017-11-25T01:58:26.536Z,8.17
2017-11-25T02:00:55.651Z,8.28
2017-11-25T02:03:23.995Z,8.29
2017-11-25T02:05:53.075Z,8.41
2017-11-25T02:08:22.923Z,8.48
2017-11-25T02:10:51.621Z,8.50
2017-11-25T02:13:19.987Z,8.36
2017-11-25T02:15:48.751Z,8.34
2017-11-25T02:18:17.108Z,8.39
2017-11-25T02:20:46.231Z,8.38
2017-11-25T02:23:15.447Z,8.38
2017-11-25T02:25:43.787Z,8.47
2017-11-25T02:28:13.675Z,8.55
2017-11-25T02:30:43.503Z,8.48
2017-11-25T02:33:12.251Z,8.54
2017-11-25T02:35:40.572Z,8.60
2017-11-25T02:38:09.681Z,8.68
2017-11-25T02:40:38.016Z,8.64
2017-11-25T02:43:06.367Z,8.53
2017-11-25T02:45:34.712Z,8.54
2017-11-25T02:48:03.056Z,8.37
2017-11-25T02:50:31.402Z,8.25
2017-11-25T02:53:00.155Z,8.29
2017-11-25T02:55:28.875Z,8.38
2017-11-25T02:57:57.601Z,8.45
2017-11-25T03:00:26.707Z,8.55
2017-11-25T03:02:55.800Z,8.61
2017-11-25T03:05:24.162Z,8.47
2017-11-25T03:07:53.291Z,8.37
2017-11-25T03:10:22.439Z,8.26
2017-11-25T03:12:51.531Z,8.30
2017-11-25T03:15:19.882Z,8.37
2017-11-25T03:17:49.334Z,8.56
2017-11-25T03:20:18.827Z,8.66
2017-11-25T03:22:47.159Z,8.72
2017-11-25T03:25:15.519Z,8.66
2017-11-25T03:27:43.867Z,8.63
2017-11-25T03:30:12.636Z,8.57
2017-11-25T03:32:40.995Z,8.65
2017-11-25T03:35:09.322Z,8.57
2017-11-25T03:37:38.710Z,8.55
2017-11-25T03:40:07.063Z,8.60
2017-11-25T03:42:35.383Z,8.54
2017-11-25T03:45:04.123Z,8.62
2017-11-25T03:47:33.222Z,8.63
2017-11-25T03:50:01.574Z,8.74
2017-11-25T03:52:29.906Z,8.77
2017-11-25T03:54:59.407Z,8.70
2017-11-25T03:57:27.763Z,8.53
2017-11-25T03:59:56.103Z,8.45
2017-11-25T04:02:24.447Z,8.55
2017-11-25T04:04:53.546Z,8.62
2017-11-25T04:07:21.898Z,8.72
2017-11-25T04:09:50.230Z,8.67
2017-11-25T04:12:18.579Z,8.60
2017-11-25T04:14:46.899Z,8.56
2017-11-25T04:17:15.658Z,8.49
2017-11-25T04:19:44.742Z,8.46
2017-11-25T04:22:13.846Z,8.55
2017-11-25T04:24:42.950Z,8.41
2017-11-25T04:27:12.031Z,8.41
2017-11-25T04:29:41.139Z,8.57
2017-11-25T04:32:09.510Z,8.57
2017-11-25T04:34:38.591Z,8.58
2017-11-25T04:37:07.702Z,8.68
2017-11-25T04:39:36.433Z,8.70
2017-11-25T04:42:04.759Z,8.45
2017-11-25T04:44:33.114Z,8.21
2017-11-25T04:47:02.791Z,8.20
2017-11-25T04:49:31.543Z,8.22
2017-11-25T04:52:00.299Z,8.29
2017-11-25T04:54:28.670Z,8.27
2017-11-25T04:56:57.023Z,8.25
2017-11-25T04:59:26.477Z,8.20
2017-11-25T05:01:55.591Z,8.22
2017-11-25T05:04:23.914Z,8.23
2017-11-25T05:06:53.023Z,8.20
2017-11-25T05:09:21.369Z,8.22
2017-11-25T05:11:49.722Z,8.17
2017-11-25T05:14:19.594Z,8.38
2017-11-25T05:16:47.917Z,8.51
2017-11-25T05:19:16.303Z,8.49
2017-11-25T05:21:45.391Z,8.39
2017-11-25T05:24:13.705Z,8.36
2017-11-25T05:26:42.058Z,8.55
2017-11-25T05:29:10.421Z,8.61
2017-11-25T05:31:38.766Z,8.62
2017-11-25T05:34:07.104Z,8.42
2017-11-25T05:36:35.437Z,8.61
2017-11-25T05:39:03.779Z,8.68
2017-11-25T05:41:32.130Z,8.61
2017-11-25T05:44:00.510Z,9.19
2017-11-25T05:46:28.828Z,9.35
2017-11-25T05:48:57.182Z,9.46
2017-11-25T05:51:25.496Z,9.46
2017-11-25T05:53:54.630Z,9.76
2017-11-25T05:56:23.358Z,9.66
2017-11-25T05:58:51.688Z,8.97
2017-11-25T06:01:20.457Z,8.76
2017-11-25T06:03:49.181Z,8.83
2017-11-25T06:06:17.909Z,8.87
2017-11-25T06:08:46.989Z,8.72
2017-11-25T06:11:16.122Z,8.50
2017-11-25T06:13:44.457Z,8.64
2017-11-25T06:16:12.818Z,8.62
2017-11-25T06:18:41.546Z,8.58
2017-11-25T06:21:10.645Z,8.49
2017-11-25T06:23:39.409Z,8.26
2017-11-25T06:26:08.140Z,8.29
2017-11-25T06:28:36.522Z,8.44
2017-11-25T06:31:04.862Z,8.56
2017-11-25T06:33:34.578Z,8.74
2017-11-25T06:36:03.690Z,8.61
2017-11-25T06:38:32.131Z,8.64
2017-11-25T06:41:00.752Z,8.65
2017-11-25T06:43:29.077Z,8.45
2017-11-25T06:45:57.484Z,8.31
2017-11-25T06:48:25.805Z,8.48
2017-11-25T06:50:54.171Z,8.64
2017-11-25T06:53:22.549Z,8.63
2017-11-25T06:55:50.994Z,8.65
2017-11-25T06:58:20.093Z,8.58
2017-11-25T07:00:49.223Z,8.43
2017-11-25T07:03:17.569Z,8.49
2017-11-25T07:05:46.694Z,8.60
2017-11-25T07:08:15.059Z,8.53
2017-11-25T07:10:43.381Z,8.38
2017-11-25T07:13:11.765Z,8.47
2017-11-25T07:15:40.122Z,8.49
2017-11-25T07:18:08.445Z,8.38
2017-11-25T07:20:36.805Z,8.42
2017-11-25T07:23:05.177Z,8.50
2017-11-25T07:25:34.285Z,8.45
2017-11-25T07:28:02.637Z,8.43
2017-11-25T07:30:30.973Z,8.48
2017-11-25T07:33:00.086Z,8.40
2017-11-25T07:35:29.569Z,8.46
2017-11-25T07:38:01.136Z,8.53
2017-11-25T07:40:29.510Z,8.62
2017-11-25T07:42:57.837Z,8.70
2017-11-25T07:45:26.203Z,8.76
2017-11-25T07:47:54.541Z,8.73
2017-11-25T07:50:22.891Z,8.72
2017-11-25T07:52:51.616Z,8.82
2017-11-25T07:55:19.950Z,8.87
2017-11-25T07:57:48.280Z,8.63
2017-11-25T08:00:16.624Z,8.66
2017-11-25T08:02:44.969Z,8.80
2017-11-25T08:05:13.304Z,8.94
2017-11-25T08:07:43.678Z,9.06
2017-11-25T08:10:13.517Z,9.08
2017-11-25T08:12:43.410Z,9.10
2017-11-25T08:15:11.764Z,9.11
2017-11-25T08:17:40.871Z,9.08
2017-11-25T08:20:09.221Z,9.04
2017-11-25T08:22:38.905Z,8.94
2017-11-25T08:25:08.605Z,8.83
2017-11-25T08:27:38.290Z,8.63
2017-11-25T08:30:07.449Z,8.50
2017-11-25T08:32:37.153Z,8.74
2017-11-25T08:35:05.853Z,8.77
2017-11-25T08:37:34.216Z,8.76
2017-11-25T08:40:02.569Z,8.75
2017-11-25T08:42:31.280Z,8.82
2017-11-25T08:45:00.431Z,8.86
2017-11-25T08:47:29.520Z,8.94
2017-11-25T08:49:57.873Z,8.96
2017-11-25T08:52:27.733Z,8.99
2017-11-25T08:54:56.047Z,9.00
2017-11-25T08:57:24.799Z,9.03
2017-11-25T08:59:53.513Z,9.08
2017-11-25T09:02:21.958Z,9.14
2017-11-25T09:04:50.681Z,9.17
2017-11-25T09:07:19.007Z,9.12
2017-11-25T09:09:48.487Z,9.12
2017-11-25T09:12:17.210Z,9.20
2017-11-25T09:14:46.337Z,9.31
2017-11-25T09:17:15.041Z,9.35
2017-11-25T09:19:44.306Z,9.33
2017-11-25T09:22:12.632Z,9.27
2017-11-25T09:24:40.977Z,9.25
2017-11-25T09:27:09.296Z,9.31
2017-11-25T09:29:39.162Z,9.33
2017-11-25T09:32:08.991Z,9.33
2017-11-25T09:34:37.343Z,9.38
2017-11-25T09:37:05.702Z,9.47
2017-11-25T09:39:35.552Z,9.57
2017-11-25T09:42:03.945Z,9.60
2017-11-25T09:44:32.268Z,9.63
2017-11-25T09:47:01.403Z,9.67
2017-11-25T09:49:31.260Z,9.67
2017-11-25T09:52:00.744Z,9.68
2017-11-25T09:54:29.075Z,9.71
2017-11-25T09:56:57.429Z,9.70
2017-11-25T09:59:26.528Z,9.69
2017-11-25T10:01:55.657Z,9.72
2017-11-25T10:04:25.348Z,9.73
2017-11-25T10:06:53.719Z,9.76
2017-11-25T10:09:22.800Z,9.87
2017-11-25T10:11:51.549Z,9.90
2017-11-25T10:14:19.864Z,9.86
2017-11-25T10:16:48.202Z,9.82
2017-11-25T10:19:16.921Z,9.80
2017-11-25T10:21:48.099Z,9.75
2017-11-25T10:24:17.780Z,9.80
2017-11-25T10:26:47.632Z,9.80
2017-11-25T10:29:15.956Z,9.70
2017-11-25T10:31:45.063Z,9.77
2017-11-25T10:34:14.184Z,9.94
2017-11-25T10:36:43.880Z,9.91
2017-11-25T10:39:12.982Z,9.86
2017-11-25T10:41:41.332Z,9.82
2017-11-25T10:44:10.683Z,9.64
2017-11-25T10:46:39.807Z,9.69
2017-11-25T10:49:08.157Z,9.58
2017-11-25T10:51:36.555Z,9.57
2017-11-25T10:54:05.643Z,9.71
2017-11-25T10:56:34.791Z,9.64
2017-11-25T10:59:03.911Z,9.69
2017-11-25T11:01:33.048Z,9.71
2017-11-25T11:04:02.145Z,9.78
2017-11-25T11:06:30.468Z,10.00
2017-11-25T11:08:58.831Z,9.90
2017-11-25T11:11:27.147Z,9.85
2017-11-25T11:13:55.868Z,9.92
2017-11-25T11:16:24.203Z,10.07
2017-11-25T11:18:52.612Z,10.23
2017-11-25T11:21:21.381Z,10.23
2017-11-25T11:23:50.471Z,10.34
2017-11-25T11:26:18.836Z,10.28
2017-11-25T11:28:47.171Z,10.41
2017-11-25T11:31:15.885Z,10.54
2017-11-25T11:33:44.243Z,10.54
2017-11-25T11:36:14.094Z,10.72
2017-11-25T11:38:43.334Z,10.45
2017-11-25T11:41:12.520Z,10.39
2017-11-25T11:43:40.908Z,10.14
2017-11-25T11:46:09.231Z,10.28
2017-11-25T11:48:37.571Z,10.36
2017-11-25T11:51:05.919Z,10.40
2017-11-25T11:53:35.420Z,10.58
2017-11-25T11:56:04.140Z,10.51
2017-11-25T11:58:32.515Z,10.51
2017-11-25T12:01:00.915Z,10.50
2017-11-25T12:03:29.680Z,10.59
2017-11-25T12:05:58.785Z,10.70
2017-11-25T12:08:27.926Z,10.91
2017-11-25T12:10:56.251Z,10.89
2017-11-25T12:13:25.374Z,10.56
2017-11-25T12:15:53.960Z,10.40
2017-11-25T12:18:23.687Z,10.40
2017-11-25T12:20:53.175Z,10.45
2017-11-25T12:23:21.938Z,10.77
2017-11-25T12:25:50.327Z,10.65
2017-11-25T12:28:19.464Z,10.48
2017-11-25T12:30:47.795Z,10.34
2017-11-25T12:33:16.535Z,10.29
2017-11-25T12:35:44.919Z,10.24
2017-11-25T12:38:14.055Z,10.15
2017-11-25T12:40:43.207Z,10.11
2017-11-25T12:43:12.615Z,9.98
2017-11-25T12:45:41.403Z,9.89
2017-11-25T12:48:10.511Z,10.08
2017-11-25T12:50:39.290Z,9.87
2017-11-25T12:53:08.382Z,9.81
2017-11-25T12:55:38.162Z,9.75
2017-11-25T12:58:07.846Z,9.91
2017-11-25T13:00:36.590Z,9.95
2017-11-25T13:03:05.710Z,10.01
2017-11-25T13:05:34.434Z,10.12
2017-11-25T13:08:03.179Z,10.25
2017-11-25T13:10:32.862Z,10.24
2017-11-25T13:13:01.982Z,10.24
2017-11-25T13:15:30.354Z,10.16
2017-11-25T13:17:59.462Z,10.05
2017-11-25T13:20:28.202Z,10.07
2017-11-25T13:22:57.302Z,10.09
2017-11-25T13:25:25.635Z,10.08
2017-11-25T13:27:54.397Z,10.09
2017-11-25T13:30:24.211Z,10.09
2017-11-25T13:32:52.579Z,9.88
2017-11-25T13:35:20.897Z,9.58
2017-11-25T13:37:49.263Z,9.36
2017-11-25T13:40:18.595Z,9.22
2017-11-25T13:42:46.937Z,9.05
2017-11-25T13:45:15.264Z,9.02
2017-11-25T13:47:43.606Z,8.96
2017-11-25T13:50:13.445Z,8.89
2017-11-25T13:52:42.552Z,8.83
2017-11-25T13:55:11.657Z,8.78
2017-11-25T13:57:40.739Z,8.67
2017-11-25T14:00:09.867Z,8.64
2017-11-25T14:02:39.689Z,8.59
2017-11-25T14:05:08.813Z,8.51
2017-11-25T14:07:37.174Z,8.41
2017-11-25T14:10:05.926Z,8.33
2017-11-25T14:12:35.603Z,8.17
2017-11-25T14:15:03.932Z,8.13
2017-11-25T14:17:32.274Z,8.05
2017-11-25T14:20:00.606Z,8.10
2017-11-25T14:22:31.292Z,8.06
2017-11-25T14:24:59.616Z,7.95
2017-11-25T14:27:29.125Z,7.92
2017-11-25T14:29:58.218Z,7.78
2017-11-25T14:32:27.357Z,7.80
2017-11-25T14:34:55.743Z,7.72
2017-11-25T14:37:24.464Z,7.63
2017-11-25T14:39:54.841Z,7.62
2017-11-25T14:42:23.200Z,7.61
2017-11-25T14:44:51.566Z,7.56
2017-11-25T14:47:21.597Z,7.53
2017-11-25T14:49:50.013Z,7.43
2017-11-25T14:52:19.122Z,7.40
2017-11-25T14:54:48.614Z,7.36
2017-11-25T14:57:17.321Z,7.31
2017-11-25T14:59:46.165Z,7.30
2017-11-25T15:02:15.287Z,7.22
2017-11-25T15:04:45.175Z,7.24
2017-11-25T15:07:13.530Z,7.16
2017-11-25T15:09:42.278Z,7.12
2017-11-25T15:12:10.642Z,7.13
2017-11-25T15:14:39.020Z,7.07
2017-11-25T15:17:08.480Z,6.98
2017-11-25T15:19:38.017Z,6.90
2017-11-25T15:22:06.414Z,6.83
2017-11-25T15:24:34.749Z,6.76
2017-11-25T15:27:03.501Z,6.68
2017-11-25T15:29:31.837Z,6.59
2017-11-25T15:32:00.207Z,6.49
2017-11-25T15:34:28.958Z,6.46
2017-11-25T15:36:58.084Z,6.43
2017-11-25T15:39:26.431Z,6.31
2017-11-25T15:41:55.630Z,6.18
2017-11-25T15:44:25.111Z,6.05
2017-11-25T15:46:53.457Z,5.92
2017-11-25T15:49:22.203Z,5.84
2017-11-25T15:51:50.550Z,5.75
2017-11-25T15:54:18.945Z,5.70
2017-11-25T15:56:48.678Z,5.68
2017-11-25T15:59:17.848Z,5.64
2017-11-25T16:01:46.568Z,5.61
2017-11-25T16:04:14.922Z,5.58
2017-11-25T16:06:44.642Z,5.55
2017-11-25T16:09:16.321Z,5.48
2017-11-25T16:11:44.788Z,5.45
2017-11-25T16:14:14.647Z,5.37
2017-11-25T16:16:43.024Z,5.41
2017-11-25T16:19:11.452Z,5.37
2017-11-25T16:21:42.437Z,5.28
2017-11-25T16:24:10.777Z,5.15
2017-11-25T16:26:39.164Z,4.95
2017-11-25T16:29:07.529Z,4.87
2017-11-25T16:31:37.546Z,4.88
2017-11-25T16:34:06.768Z,4.92
2017-11-25T16:36:36.249Z,4.90
2017-11-25T16:39:05.377Z,4.85
2017-11-25T16:41:34.465Z,4.87
2017-11-25T16:44:02.789Z,4.88
2017-11-25T16:46:32.277Z,4.87
2017-11-25T16:49:00.641Z,4.86
2017-11-25T16:51:29.733Z,4.87
2017-11-25T16:53:58.054Z,4.81
2017-11-25T16:56:27.180Z,4.80
2017-11-25T16:58:55.903Z,4.78
2017-11-25T17:01:25.404Z,4.78
2017-11-25T17:03:55.087Z,4.73
2017-11-25T17:06:23.460Z,4.70
2017-11-25T17:08:51.785Z,4.65
2017-11-25T17:11:20.143Z,4.63
2017-11-25T17:13:49.233Z,4.63
2017-11-25T17:16:18.357Z,4.58
2017-11-25T17:18:47.445Z,4.54
2017-11-25T17:21:16.759Z,4.53
2017-11-25T17:23:45.896Z,4.55
2017-11-25T17:26:15.570Z,4.53
2017-11-25T17:28:45.424Z,4.54
2017-11-25T17:31:14.146Z,4.54
2017-11-25T17:33:42.504Z,4.49
2017-11-25T17:36:10.913Z,4.45
2017-11-25T17:38:40.410Z,4.45
2017-11-25T17:41:08.772Z,4.45
2017-11-25T17:43:37.155Z,4.42
2017-11-25T17:46:05.544Z,4.41
2017-11-25T17:48:33.940Z,4.44
2017-11-25T17:51:03.072Z,4.47
2017-11-25T17:53:31.429Z,4.49
2017-11-25T17:56:01.204Z,4.47
2017-11-25T17:58:29.556Z,4.46
2017-11-25T18:00:58.639Z,4.49
2017-11-25T18:03:26.976Z,4.54
2017-11-25T18:05:56.107Z,4.58
2017-11-25T18:08:24.860Z,4.51
2017-11-25T18:10:53.990Z,4.51
2017-11-25T18:13:23.075Z,4.49
2017-11-25T18:15:51.425Z,4.55
2017-11-25T18:18:19.754Z,4.53
2017-11-25T18:20:48.112Z,4.55
2017-11-25T18:23:16.444Z,4.54
2017-11-25T18:25:45.552Z,4.52
2017-11-25T18:28:13.884Z,4.52
2017-11-25T18:30:42.258Z,4.52
2017-11-25T18:33:10.598Z,4.48
2017-11-25T18:35:39.740Z,4.48
2017-11-25T18:38:09.527Z,4.34
2017-11-25T18:40:38.064Z,4.38
2017-11-25T18:43:08.819Z,4.39
2017-11-25T18:45:37.151Z,4.36
2017-11-25T18:48:05.893Z,4.33
2017-11-25T18:50:34.343Z,4.38
2017-11-25T18:53:03.478Z,4.36
2017-11-25T18:55:31.800Z,4.36
2017-11-25T18:58:02.471Z,4.33
2017-11-25T19:00:31.303Z,4.30
2017-11-25T19:03:00.400Z,4.31
2017-11-25T19:05:28.768Z,4.29
2017-11-25T19:07:57.137Z,4.33
2017-11-25T19:10:25.515Z,4.31
2017-11-25T19:12:53.870Z,4.30
2017-11-25T19:15:22.991Z,4.30
2017-11-25T19:17:52.702Z,4.37
2017-11-25T19:20:21.892Z,4.51
2017-11-25T19:22:51.019Z,4.60
2017-11-25T19:25:20.241Z,4.53
2017-11-25T19:27:49.735Z,4.57
2017-11-25T19:30:18.125Z,4.54
2017-11-25T19:32:47.223Z,4.49
2017-11-25T19:35:16.735Z,4.44
2017-11-25T19:37:45.824Z,4.51
2017-11-25T19:40:15.011Z,4.45
2017-11-25T19:42:44.159Z,4.45
2017-11-25T19:45:12.524Z,4.39
2017-11-25T19:47:41.271Z,4.39
2017-11-25T19:50:10.484Z,4.33
2017-11-25T19:52:41.075Z,4.40
2017-11-25T19:55:09.499Z,4.43
2017-11-25T19:57:38.227Z,4.40
2017-11-25T20:00:07.464Z,4.36
2017-11-25T20:02:37.886Z,4.36
2017-11-25T20:05:06.251Z,4.44
2017-11-25T20:07:35.374Z,4.47
2017-11-25T20:10:04.507Z,4.36
2017-11-25T20:12:33.275Z,4.39
2017-11-25T20:15:02.397Z,4.46
2017-11-25T20:17:31.669Z,4.48
2017-11-25T20:20:01.795Z,4.54
2017-11-25T20:22:33.105Z,4.56
2017-11-25T20:25:03.054Z,4.60
2017-11-25T20:27:32.599Z,4.66
2017-11-25T20:30:03.688Z,4.53
2017-11-25T20:32:34.728Z,4.52
2017-11-25T20:35:07.430Z,4.57
2017-11-25T20:37:39.819Z,4.46
2017-11-25T20:40:09.303Z,4.42
2017-11-25T20:42:38.506Z,4.40
2017-11-25T20:45:18.792Z,4.45
2017-11-25T20:47:51.495Z,4.64
2017-11-25T20:50:40.114Z,4.69
2017-11-25T20:53:32.184Z,4.72
2017-11-25T20:56:03.542Z,4.81
2017-11-25T20:58:32.187Z,4.89
2017-11-25T21:01:06.389Z,4.83
2017-11-25T21:03:45.219Z,4.90
2017-11-25T21:09:20.107Z,5.04
2017-11-25T21:15:26.987Z,5.05
2017-11-25T21:18:02.623Z,4.95
2017-11-25T21:26:57.398Z,5.10
2017-11-25T21:32:26.863Z,5.16
2017-11-25T21:34:56.354Z,5.13
2017-11-25T22:32:35.306Z,4.51
2017-11-25T22:35:27.842Z,4.29
2017-11-25T22:41:21.074Z,4.13
2017-11-25T22:55:23.199Z,4.21
2017-11-25T22:57:52.465Z,4.40
2017-11-25T23:00:23.366Z,4.34
2017-11-25T23:02:51.839Z,4.11
2017-11-25T23:05:21.653Z,3.81
2017-11-25T23:07:51.430Z,3.84
2017-11-25T23:10:19.830Z,3.82
2017-11-25T23:12:49.384Z,3.72
2017-11-25T23:15:19.345Z,3.53
2017-11-25T23:17:48.546Z,3.35
2017-11-25T23:20:17.718Z,3.25
2017-11-25T23:22:47.493Z,3.44
2017-11-25T23:25:15.890Z,3.71
2017-11-25T23:27:45.602Z,3.78
2017-11-25T23:30:14.777Z,3.81
2017-11-25T23:32:43.545Z,3.86
2017-11-25T23:35:12.496Z,3.84
2017-11-25T23:37:42.293Z,3.88
2017-11-25T23:40:12.165Z,3.94
2017-11-25T23:42:40.758Z,3.86
2017-11-25T23:45:10.593Z,3.65
2017-11-25T23:47:39.015Z,3.40
2017-11-25T23:50:07.411Z,3.31
2017-11-25T23:52:36.177Z,3.44
2017-11-25T23:55:04.701Z,3.29
2017-11-25T23:57:33.582Z,3.25
